Terminal Aerodrome Forecast
Issued by NWS Atlanta, GA

Home | Current Version | Previous Version | Text Only | Print | Product List | Glossary On
Versions: 1 2 3 4 5 6 7 8 9 10 11 12 13 14 15 16
000
FTUS42 KFFC 271239 AAB
TAFCSG
TAF AMD
KCSG 271239Z 2713/2812 20012KT P6SM -SHRA BKN012
     FM271500 18012KT 6SM -SHRA BR SCT012 BKN025
      TEMPO 2716/2719 VRB15G30KT 4SM -TSRA BR BKN012CB
     FM271900 24013G22KT 6SM -RA BR BKN025
     FM272100 25013G22KT P6SM SCT050 BKN100
     FM280000 22006KT P6SM SCT250
     FM280900 17004KT 2SM BR BKN008=

USA.gov is the U.S. government's official web portal to all federal, state and local government web resources and services.